createdAt,value
2023-01-22T00:00:11.315Z,7.82
2023-01-22T00:02:42.987Z,7.13
2023-01-22T00:05:10.515Z,7.85
2023-01-22T00:07:37.597Z,7.00
2023-01-22T00:10:04.780Z,7.18
2023-01-22T00:12:32.035Z,7.03
2023-01-22T00:14:59.071Z,7.15
2023-01-22T00:17:26.323Z,7.38
2023-01-22T00:19:53.360Z,6.80
2023-01-22T00:22:20.453Z,6.78
2023-01-22T00:24:47.453Z,7.70
2023-01-22T00:27:14.376Z,7.28
2023-01-22T00:29:46.937Z,7.43
2023-01-22T00:32:15.860Z,7.78
2023-01-22T00:34:50.747Z,7.65
2023-01-22T00:37:20.336Z,7.70
2023-01-22T00:39:48.859Z,8.00
2023-01-22T00:42:16.402Z,8.15
2023-01-22T00:44:45.133Z,7.57
2023-01-22T00:47:13.157Z,7.50
2023-01-22T00:49:42.220Z,7.80
2023-01-22T00:52:09.271Z,7.60
2023-01-22T00:54:36.362Z,8.27
2023-01-22T00:57:03.665Z,7.65
2023-01-22T00:59:30.843Z,8.18
2023-01-22T01:01:57.875Z,7.38
2023-01-22T01:04:27.898Z,7.07
2023-01-22T01:06:57.292Z,6.97
2023-01-22T01:09:25.740Z,7.75
2023-01-22T01:11:52.713Z,7.13
2023-01-22T01:14:19.596Z,7.30
2023-01-22T01:16:46.445Z,7.65
2023-01-22T01:19:13.463Z,7.07
2023-01-22T01:21:40.633Z,6.63
2023-01-22T01:24:07.590Z,7.38
2023-01-22T01:26:35.414Z,7.50
2023-01-22T01:29:04.457Z,7.47
2023-01-22T01:31:31.268Z,7.97
2023-01-22T01:33:58.576Z,7.47
2023-01-22T01:39:13.583Z,8.48
2023-01-22T01:41:40.459Z,8.00
2023-01-22T01:44:24.771Z,7.43
2023-01-22T01:47:05.371Z,6.97
2023-01-22T01:49:53.655Z,7.70
2023-01-22T01:52:21.094Z,7.20
2023-01-22T01:54:52.544Z,7.03
2023-01-22T01:57:24.042Z,7.45
2023-01-22T01:59:52.928Z,7.30
2023-01-22T02:02:20.677Z,7.13
2023-01-22T02:04:49.542Z,7.85
2023-01-22T02:07:16.859Z,7.05
2023-01-22T02:09:43.926Z,7.28
2023-01-22T02:12:11.365Z,7.05
2023-01-22T02:14:41.409Z,7.15
2023-01-22T02:17:21.148Z,7.38
2023-01-22T02:19:48.331Z,7.00
2023-01-22T02:22:16.194Z,7.00
2023-01-22T02:24:43.467Z,6.63
2023-01-22T02:31:16.393Z,7.43
2023-01-22T02:33:43.928Z,7.10
2023-01-22T02:36:10.992Z,6.78
2023-01-22T02:38:37.912Z,7.15
2023-01-22T02:41:05.315Z,6.97
2023-01-22T02:43:32.251Z,6.93
2023-01-22T02:45:59.269Z,6.53
2023-01-22T02:48:26.422Z,6.28
2023-01-22T02:50:53.546Z,6.35
2023-01-22T02:53:20.484Z,6.20
2023-01-22T02:55:49.101Z,5.88
2023-01-22T02:58:17.403Z,6.20
2023-01-22T03:00:44.477Z,5.78
2023-01-22T03:03:15.679Z,6.25
2023-01-22T03:05:52.649Z,6.03
2023-01-22T03:08:20.244Z,6.07
2023-01-22T03:10:47.381Z,5.80
2023-01-22T03:13:33.261Z,6.07
2023-01-22T03:16:22.628Z,5.93
2023-01-22T03:19:08.279Z,5.70
2023-01-22T03:21:35.206Z,5.22
2023-01-22T03:24:02.121Z,5.40
2023-01-22T03:26:31.542Z,5.95
2023-01-22T03:28:58.357Z,5.47
2023-01-22T03:31:25.466Z,5.38
2023-01-22T03:33:52.587Z,5.65
2023-01-22T03:36:19.635Z,5.13
2023-01-22T03:38:46.428Z,5.38
2023-01-22T03:41:15.806Z,5.28
2023-01-22T03:43:42.908Z,5.55
2023-01-22T03:46:15.593Z,5.30
2023-01-22T03:48:43.498Z,5.13
2023-01-22T03:51:13.367Z,5.38
2023-01-22T03:53:40.946Z,5.38
2023-01-22T03:56:11.356Z,5.68
2023-01-22T03:58:38.717Z,5.57
2023-01-22T04:01:10.452Z,5.28
2023-01-22T04:03:37.631Z,5.13
2023-01-22T04:06:05.595Z,4.90
2023-01-22T04:08:34.404Z,5.18
2023-01-22T04:11:01.776Z,4.50
2023-01-22T04:13:30.254Z,4.80
2023-01-22T04:15:57.473Z,4.53
2023-01-22T04:18:24.409Z,4.72
2023-01-22T04:20:52.544Z,4.75
2023-01-22T04:23:21.150Z,4.25
2023-01-22T04:25:48.685Z,4.53
2023-01-22T04:28:16.660Z,4.47
2023-01-22T04:30:45.450Z,4.93
2023-01-22T04:33:12.865Z,4.25
2023-01-22T04:35:40.424Z,4.30
2023-01-22T04:38:10.145Z,4.05
2023-01-22T04:40:37.164Z,4.45
2023-01-22T04:43:07.101Z,4.60
2023-01-22T04:45:34.503Z,4.15
2023-01-22T04:48:02.121Z,3.92
2023-01-22T04:50:32.348Z,4.13
2023-01-22T04:53:00.645Z,3.88
2023-01-22T04:55:29.321Z,4.05
2023-01-22T04:57:58.409Z,3.88
2023-01-22T05:04:58.010Z,3.83
2023-01-22T05:23:33.697Z,3.22
2023-01-22T05:26:00.696Z,3.55
2023-01-22T05:28:27.589Z,3.47
2023-01-22T05:30:54.706Z,3.53
2023-01-22T05:33:22.584Z,2.75
2023-01-22T05:36:00.291Z,3.38
2023-01-22T05:38:29.514Z,3.30
2023-01-22T05:40:56.776Z,3.00
2023-01-22T05:43:24.612Z,3.20
2023-01-22T05:45:51.932Z,3.45
2023-01-22T05:48:19.050Z,3.42
2023-01-22T05:50:46.241Z,3.28
2023-01-22T05:53:13.411Z,3.08
2023-01-22T05:55:40.767Z,3.40
2023-01-22T05:58:09.050Z,3.20
2023-01-22T06:00:36.515Z,3.28
2023-01-22T06:03:03.767Z,3.35
2023-01-22T06:05:31.046Z,3.30
2023-01-22T06:07:58.173Z,3.00
2023-01-22T06:10:25.413Z,3.40
2023-01-22T06:12:52.561Z,3.55
2023-01-22T06:15:19.708Z,3.20
2023-01-22T06:17:46.732Z,3.47
2023-01-22T06:20:14.125Z,4.05
2023-01-22T06:22:41.136Z,3.17
2023-01-22T06:25:09.584Z,3.05
2023-01-22T06:27:36.668Z,3.50
2023-01-22T06:30:03.990Z,3.60
2023-01-22T06:32:31.202Z,3.72
2023-01-22T06:34:58.210Z,3.85
2023-01-22T06:37:25.110Z,3.80
2023-01-22T06:39:52.016Z,4.20
2023-01-22T06:42:19.234Z,3.78
2023-01-22T06:44:46.157Z,3.90
2023-01-22T06:47:13.059Z,4.13
2023-01-22T06:49:40.195Z,4.32
2023-01-22T06:52:07.317Z,4.18
2023-01-22T06:54:34.229Z,3.92
2023-01-22T06:57:01.179Z,4.07
2023-01-22T06:59:28.107Z,3.85
2023-01-22T07:01:55.203Z,4.10
2023-01-22T07:04:22.130Z,3.80
2023-01-22T07:06:48.878Z,4.13
2023-01-22T07:12:15.328Z,4.18
2023-01-22T07:14:42.313Z,4.30
2023-01-22T07:17:09.701Z,3.90
2023-01-22T07:19:36.512Z,4.20
2023-01-22T07:22:03.316Z,4.60
2023-01-22T07:24:30.436Z,5.35
2023-01-22T07:26:57.380Z,5.68
2023-01-22T07:29:24.375Z,5.63
2023-01-22T07:31:51.273Z,4.97
2023-01-22T07:34:18.184Z,4.43
2023-01-22T07:36:46.764Z,4.07
2023-01-22T07:39:13.833Z,3.55
2023-01-22T07:41:40.649Z,3.40
2023-01-22T07:46:49.420Z,4.30
2023-01-22T07:51:57.059Z,4.63
2023-01-22T07:54:23.900Z,4.63
2023-01-22T07:56:50.867Z,3.83
2023-01-22T07:59:17.802Z,4.63
2023-01-22T08:01:44.703Z,3.75
2023-01-22T08:04:11.548Z,4.13
2023-01-22T08:06:38.409Z,4.20
2023-01-22T08:09:06.708Z,4.30
2023-01-22T08:11:33.572Z,3.92
2023-01-22T08:14:00.572Z,3.70
2023-01-22T08:16:27.664Z,4.15
2023-01-22T08:18:55.465Z,3.83
2023-01-22T08:21:22.334Z,3.35
2023-01-22T08:23:49.470Z,3.67
2023-01-22T08:26:16.625Z,3.47
2023-01-22T08:28:43.655Z,3.65
2023-01-22T08:31:19.280Z,3.55
2023-01-22T08:33:53.581Z,3.40
2023-01-22T08:36:20.524Z,3.45
2023-01-22T08:38:47.532Z,3.60
2023-01-22T08:41:15.717Z,3.25
2023-01-22T08:43:42.551Z,3.30
2023-01-22T08:46:09.781Z,3.35
2023-01-22T08:48:36.600Z,3.45
2023-01-22T08:51:03.467Z,3.58
2023-01-22T08:53:30.722Z,3.95
2023-01-22T08:55:57.533Z,3.60
2023-01-22T08:58:25.354Z,3.60
2023-01-22T09:00:52.249Z,3.40
2023-01-22T09:03:19.211Z,3.83
2023-01-22T09:05:45.999Z,3.53
2023-01-22T09:08:13.282Z,3.72
2023-01-22T09:10:40.532Z,3.75
2023-01-22T09:13:07.514Z,3.50
2023-01-22T09:15:34.386Z,3.60
2023-01-22T09:18:02.479Z,3.60
2023-01-22T09:20:29.420Z,3.33
2023-01-22T09:22:56.305Z,3.90
2023-01-22T09:25:26.292Z,3.75
2023-01-22T09:28:01.012Z,3.35
2023-01-22T09:30:30.561Z,3.70
2023-01-22T09:32:57.673Z,3.30
2023-01-22T09:35:24.681Z,3.17
2023-01-22T09:37:51.565Z,3.20
2023-01-22T09:43:25.937Z,3.40
2023-01-22T09:45:56.811Z,3.60
2023-01-22T09:48:33.289Z,3.17
2023-01-22T09:53:28.618Z,3.22
2023-01-22T09:55:57.672Z,3.47
2023-01-22T09:58:32.048Z,3.17
2023-01-22T10:01:05.960Z,3.35
2023-01-22T10:03:36.380Z,3.50
2023-01-22T10:06:21.508Z,3.45
2023-01-22T10:09:08.052Z,4.03
2023-01-22T10:11:35.949Z,3.50
2023-01-22T10:14:05.531Z,3.25
2023-01-22T10:16:32.330Z,3.40
2023-01-22T10:19:11.704Z,3.45
2023-01-22T10:21:48.020Z,3.33
2023-01-22T10:24:15.004Z,3.30
2023-01-22T10:26:49.110Z,3.47
2023-01-22T10:29:34.948Z,4.70
2023-01-22T10:32:16.356Z,3.90
2023-01-22T10:34:43.427Z,2.97
2023-01-22T10:37:18.010Z,2.90
2023-01-22T10:39:50.823Z,3.47
2023-01-22T10:42:23.186Z,3.55
2023-01-22T10:44:54.281Z,3.20
2023-01-22T10:47:23.904Z,3.88
2023-01-22T10:50:04.448Z,4.05
2023-01-22T10:52:39.905Z,3.90
2023-01-22T10:55:08.369Z,3.70
2023-01-22T10:57:36.955Z,4.28
2023-01-22T11:00:16.395Z,3.97
2023-01-22T11:02:45.956Z,3.47
2023-01-22T11:05:24.526Z,3.78
2023-01-22T11:07:59.206Z,3.60
2023-01-22T11:10:44.480Z,3.40
2023-01-22T11:13:45.416Z,3.90
2023-01-22T11:16:17.621Z,3.40
2023-01-22T11:18:55.711Z,3.50
2023-01-22T11:21:28.936Z,3.67
2023-01-22T11:24:10.081Z,4.10
2023-01-22T11:27:27.529Z,3.42
2023-01-22T11:30:31.765Z,3.22
2023-01-22T11:33:24.746Z,3.10
2023-01-22T11:36:03.923Z,3.40
2023-01-22T11:39:16.462Z,3.53
2023-01-22T11:42:02.936Z,3.45
2023-01-22T11:44:53.819Z,3.10
2023-01-22T11:47:48.877Z,3.17
2023-01-22T11:50:36.766Z,3.17
2023-01-22T11:53:41.336Z,3.15
2023-01-22T11:56:22.247Z,3.05
2023-01-22T11:59:11.484Z,3.90
2023-01-22T12:01:57.245Z,3.70
2023-01-22T12:04:50.417Z,3.28
2023-01-22T12:07:41.735Z,3.40
2023-01-22T12:10:39.503Z,3.40
2023-01-22T12:13:21.727Z,3.00
2023-01-22T12:16:01.310Z,3.30
2023-01-22T12:18:49.978Z,2.95
2023-01-22T12:21:40.343Z,3.28
2023-01-22T12:24:36.731Z,3.30
2023-01-22T12:27:05.634Z,3.85
2023-01-22T12:29:47.420Z,3.00
2023-01-22T12:32:19.209Z,4.53
2023-01-22T12:34:55.196Z,3.50
2023-01-22T12:37:29.184Z,3.50
2023-01-22T12:40:16.715Z,3.17
2023-01-22T12:42:52.110Z,3.40
2023-01-22T12:45:52.560Z,3.45
2023-01-22T12:48:22.507Z,3.47
2023-01-22T12:50:57.706Z,3.30
2023-01-22T12:53:28.031Z,3.05
2023-01-22T12:55:59.103Z,3.25
2023-01-22T12:58:30.236Z,3.80
2023-01-22T13:01:14.098Z,3.63
2023-01-22T13:03:42.063Z,3.38
2023-01-22T13:06:20.869Z,3.58
2023-01-22T13:08:48.275Z,3.72
2023-01-22T13:11:27.670Z,3.60
2023-01-22T13:14:13.741Z,2.97
2023-01-22T13:21:48.031Z,3.20
2023-01-22T13:24:21.097Z,3.40
2023-01-22T13:26:58.612Z,3.30
2023-01-22T13:29:37.616Z,3.40
2023-01-22T13:32:15.867Z,3.38
2023-01-22T13:34:42.756Z,3.30
2023-01-22T13:37:26.934Z,3.47
2023-01-22T13:39:53.782Z,3.83
2023-01-22T13:42:21.956Z,3.58
2023-01-22T13:44:52.117Z,3.22
2023-01-22T13:47:34.533Z,3.45
2023-01-22T13:50:02.730Z,3.30
2023-01-22T13:52:30.107Z,3.50
2023-01-22T13:55:24.673Z,3.30
2023-01-22T13:57:54.024Z,3.60
2023-01-22T14:05:19.642Z,3.28
2023-01-22T14:07:46.879Z,3.30
2023-01-22T14:13:47.192Z,3.55
2023-01-22T14:16:15.011Z,4.22
2023-01-22T14:18:45.308Z,8.15
2023-01-22T14:21:12.658Z,5.05
2023-01-22T14:23:39.680Z,4.28
2023-01-22T14:26:08.398Z,4.30
2023-01-22T14:28:36.883Z,3.60
2023-01-22T14:31:04.165Z,3.90
2023-01-22T14:33:33.433Z,4.05
2023-01-22T14:36:00.867Z,3.97
2023-01-22T14:38:28.121Z,3.97
2023-01-22T14:40:55.457Z,3.88
2023-01-22T14:43:22.932Z,3.55
2023-01-22T14:45:49.715Z,4.28
2023-01-22T14:48:18.393Z,3.80
2023-01-22T14:50:45.847Z,4.35
2023-01-22T14:53:14.154Z,3.95
2023-01-22T14:55:45.325Z,3.80
2023-01-22T14:58:12.258Z,4.18
2023-01-22T15:00:39.622Z,4.68
2023-01-22T15:03:06.687Z,8.50
2023-01-22T15:05:35.589Z,5.75
2023-01-22T15:08:02.913Z,4.57
2023-01-22T15:10:30.050Z,4.13
2023-01-22T15:12:56.862Z,4.28
2023-01-22T15:15:28.581Z,4.15
2023-01-22T15:17:57.293Z,4.35
2023-01-22T15:20:24.460Z,4.18
2023-01-22T15:22:51.813Z,4.43
2023-01-22T15:25:18.787Z,5.13
2023-01-22T15:27:45.739Z,4.75
2023-01-22T15:30:13.827Z,4.07
2023-01-22T15:32:41.098Z,3.85
2023-01-22T15:35:08.418Z,4.22
2023-01-22T15:37:35.286Z,4.00
2023-01-22T15:40:02.474Z,5.50
2023-01-22T15:42:29.415Z,4.78
2023-01-22T15:44:56.275Z,4.40
2023-01-22T15:47:23.129Z,4.45
2023-01-22T15:49:49.950Z,5.70
2023-01-22T15:52:16.944Z,6.10
2023-01-22T15:54:44.019Z,5.38
2023-01-22T15:57:10.761Z,4.50
2023-01-22T15:59:38.902Z,4.97
2023-01-22T16:02:06.165Z,4.03
2023-01-22T16:04:33.088Z,4.57
2023-01-22T16:06:59.895Z,4.55
2023-01-22T16:09:26.878Z,4.18
2023-01-22T16:11:53.760Z,4.53
2023-01-22T16:14:20.888Z,4.32
2023-01-22T16:16:47.853Z,4.20
2023-01-22T16:19:14.839Z,4.57
2023-01-22T16:21:41.838Z,5.30
2023-01-22T16:24:09.847Z,4.90
2023-01-22T16:26:36.791Z,4.95
2023-01-22T16:29:05.589Z,4.75
2023-01-22T16:31:34.580Z,4.45
2023-01-22T16:34:09.963Z,4.55
2023-01-22T16:36:37.289Z,4.57
2023-01-22T16:39:04.910Z,5.65
2023-01-22T16:41:34.466Z,5.47
2023-01-22T16:44:05.588Z,4.30
2023-01-22T16:46:33.558Z,4.60
2023-01-22T16:49:19.146Z,4.75
2023-01-22T16:51:48.164Z,4.75
2023-01-22T16:54:22.501Z,4.53
2023-01-22T16:56:50.004Z,4.38
2023-01-22T16:59:17.838Z,5.07
2023-01-22T17:01:45.835Z,4.72
2023-01-22T17:04:12.987Z,5.07
2023-01-22T17:33:55.671Z,5.20
2023-01-22T17:36:28.497Z,5.07
2023-01-22T17:38:57.034Z,5.18
2023-01-22T17:41:25.565Z,7.03
2023-01-22T17:43:55.375Z,5.32
2023-01-22T17:46:33.268Z,5.35
2023-01-22T17:49:01.682Z,5.40
2023-01-22T17:51:30.026Z,5.70
2023-01-22T17:53:59.830Z,6.72
2023-01-22T17:56:34.998Z,5.68
2023-01-22T17:59:05.201Z,5.83
2023-01-22T18:01:34.194Z,5.60
2023-01-22T18:04:03.808Z,4.97
2023-01-22T18:06:31.767Z,5.78
2023-01-22T18:08:58.972Z,5.50
2023-01-22T18:11:28.417Z,5.75
2023-01-22T18:13:59.359Z,6.07
2023-01-22T18:16:29.675Z,5.65
2023-01-22T18:18:58.638Z,6.10
2023-01-22T18:21:26.674Z,6.13
2023-01-22T18:23:53.653Z,5.57
2023-01-22T18:34:15.394Z,5.78
2023-01-22T18:36:42.601Z,5.70
2023-01-22T18:39:14.969Z,6.03
2023-01-22T18:41:42.479Z,5.97
2023-01-22T18:44:10.342Z,5.85
2023-01-22T18:46:39.398Z,5.78
2023-01-22T18:49:10.678Z,6.00
2023-01-22T18:51:37.484Z,6.03
2023-01-22T18:54:05.321Z,6.15
2023-01-22T18:56:32.613Z,6.35
2023-01-22T18:58:59.917Z,6.07
2023-01-22T19:01:29.935Z,6.13
2023-01-22T19:03:59.723Z,7.25
2023-01-22T19:06:29.559Z,7.57
2023-01-22T19:09:02.899Z,6.35
2023-01-22T19:11:32.203Z,7.25
2023-01-22T19:14:00.188Z,6.93
2023-01-22T19:16:28.402Z,6.93
2023-01-22T19:19:00.665Z,6.50
2023-01-22T19:21:27.979Z,6.65
2023-01-22T19:23:57.883Z,6.60
2023-01-22T19:26:33.844Z,6.57
2023-01-22T19:29:04.080Z,6.70
2023-01-22T19:31:37.227Z,7.13
2023-01-22T20:12:03.057Z,6.78
2023-01-22T20:14:33.063Z,5.93
2023-01-22T20:17:01.326Z,6.03
2023-01-22T20:19:29.373Z,6.15
2023-01-22T20:21:56.877Z,5.90
2023-01-22T20:24:24.140Z,6.10
2023-01-22T20:26:54.761Z,5.95
2023-01-22T20:29:22.527Z,5.38
2023-01-22T20:31:53.580Z,6.07
2023-01-22T20:34:21.147Z,5.97
2023-01-22T20:36:48.500Z,6.50
2023-01-22T20:39:16.256Z,5.80
2023-01-22T20:41:45.600Z,4.93
2023-01-22T20:44:13.608Z,5.30
2023-01-22T20:46:44.679Z,5.10
2023-01-22T20:49:13.536Z,5.57
2023-01-22T20:51:41.911Z,5.00
2023-01-22T20:54:09.567Z,5.20
2023-01-22T20:56:36.457Z,5.18
2023-01-22T20:59:10.565Z,5.68
2023-01-22T21:01:38.003Z,5.70
2023-01-22T21:04:05.423Z,6.30
2023-01-22T21:06:34.545Z,5.57
2023-01-22T21:09:03.162Z,6.13
2023-01-22T21:11:33.999Z,5.68
2023-01-22T21:14:04.621Z,6.00
2023-01-22T21:16:34.436Z,6.65
2023-01-22T21:19:08.354Z,5.70
2023-01-22T21:21:36.295Z,6.07
2023-01-22T21:24:03.269Z,5.70
2023-01-22T21:26:32.288Z,6.15
2023-01-22T21:29:02.796Z,5.53
2023-01-22T21:31:30.501Z,6.32
2023-01-22T21:34:05.367Z,5.82
2023-01-22T21:36:34.279Z,5.30
2023-01-22T21:39:02.025Z,5.72
2023-01-22T21:41:28.979Z,5.47
2023-01-22T21:44:14.373Z,5.40
2023-01-22T21:46:43.477Z,5.78
2023-01-22T21:49:20.301Z,5.28
2023-01-22T21:52:02.083Z,5.05
2023-01-22T21:54:41.250Z,5.05
2023-01-22T21:57:11.769Z,5.65
2023-01-22T21:59:38.814Z,5.82
2023-01-22T22:02:07.061Z,6.05
2023-01-22T22:04:34.349Z,6.00
2023-01-22T22:07:01.138Z,5.50
2023-01-22T22:09:29.524Z,5.50
2023-01-22T22:11:58.374Z,5.57
2023-01-22T22:14:25.685Z,6.15
2023-01-22T22:16:53.620Z,6.05
2023-01-22T22:19:21.334Z,5.15
2023-01-22T22:21:48.374Z,5.75
2023-01-22T22:24:16.186Z,5.20
2023-01-22T22:26:43.458Z,5.97
2023-01-22T22:29:10.661Z,5.65
2023-01-22T22:31:37.887Z,4.90
2023-01-22T22:34:05.517Z,5.15
2023-01-22T22:36:33.217Z,4.90
2023-01-22T22:39:01.712Z,5.10
2023-01-22T22:41:30.882Z,5.05
2023-01-22T22:43:58.193Z,5.00
2023-01-22T22:46:32.898Z,4.50
2023-01-22T22:49:01.450Z,4.90
2023-01-22T22:51:30.135Z,4.78
2023-01-22T22:53:59.397Z,4.57
2023-01-22T22:56:27.915Z,5.03
2023-01-22T22:58:56.543Z,4.85
2023-01-22T23:01:25.280Z,5.22
2023-01-22T23:03:53.618Z,5.45
2023-01-22T23:06:26.742Z,5.18
2023-01-22T23:08:54.961Z,4.63
2023-01-22T23:11:24.718Z,4.65
2023-01-22T23:13:52.546Z,4.63
2023-01-22T23:16:22.228Z,4.18
2023-01-22T23:18:51.000Z,3.70
2023-01-22T23:21:21.747Z,3.88
2023-01-22T23:23:49.082Z,3.80
2023-01-22T23:26:18.327Z,4.15
2023-01-22T23:28:45.669Z,3.80
2023-01-22T23:31:14.780Z,4.03
2023-01-22T23:33:41.989Z,3.90
2023-01-22T23:36:15.461Z,4.05
2023-01-22T23:38:42.754Z,4.32
2023-01-22T23:41:12.336Z,4.10
2023-01-22T23:43:39.525Z,4.35
2023-01-22T23:46:12.758Z,4.13
2023-01-22T23:48:39.911Z,4.72
2023-01-22T23:51:07.969Z,4.53
2023-01-22T23:53:40.105Z,4.88
2023-01-22T23:56:08.407Z,4.90
2023-01-22T23:58:35.733Z,4.90
